createdAt,value
2018-02-27T00:01:49.691Z,-6.52
2018-02-27T00:04:17.305Z,-6.51
2018-02-27T00:06:44.865Z,-6.63
2018-02-27T00:09:12.482Z,-6.54
2018-02-27T00:11:42.456Z,-6.52
2018-02-27T00:14:10.099Z,-6.57
2018-02-27T00:16:37.713Z,-6.52
2018-02-27T00:19:05.327Z,-6.50
2018-02-27T00:21:32.931Z,-6.53
2018-02-27T00:24:00.501Z,-6.55
2018-02-27T00:26:28.095Z,-6.55
2018-02-27T00:28:55.837Z,-6.69
2018-02-27T00:31:23.434Z,-6.67
2018-02-27T00:33:51.038Z,-6.61
2018-02-27T00:36:18.608Z,-6.56
2018-02-27T00:38:46.354Z,-6.52
2018-02-27T00:41:13.982Z,-6.64
2018-02-27T00:43:41.557Z,-6.61
2018-02-27T00:46:09.125Z,-6.55
2018-02-27T00:48:36.815Z,-6.53
2018-02-27T00:51:04.388Z,-6.60
2018-02-27T00:53:32.130Z,-6.68
2018-02-27T00:55:59.736Z,-6.66
2018-02-27T00:58:27.310Z,-6.60
2018-02-27T01:00:54.925Z,-6.60
2018-02-27T01:03:22.544Z,-6.59
2018-02-27T01:05:50.235Z,-6.70
2018-02-27T01:08:17.800Z,-6.64
2018-02-27T01:10:45.573Z,-6.59
2018-02-27T01:13:13.321Z,-6.72
2018-02-27T01:15:41.108Z,-6.68
2018-02-27T01:18:08.751Z,-6.76
2018-02-27T01:20:36.327Z,-6.92
2018-02-27T01:23:03.909Z,-6.99
2018-02-27T01:25:31.511Z,-7.09
2018-02-27T01:27:59.083Z,-7.07
2018-02-27T01:30:26.862Z,-7.25
2018-02-27T01:32:54.486Z,-7.17
2018-02-27T01:35:22.050Z,-7.16
2018-02-27T01:37:49.618Z,-7.10
2018-02-27T01:40:17.240Z,-7.03
2018-02-27T01:42:44.823Z,-7.00
2018-02-27T01:45:12.630Z,-7.01
2018-02-27T01:47:40.244Z,-6.99
2018-02-27T01:50:07.955Z,-7.10
2018-02-27T01:52:35.611Z,-7.13
2018-02-27T01:55:03.238Z,-7.03
2018-02-27T01:57:30.827Z,-6.89
2018-02-27T01:59:58.598Z,-6.86
2018-02-27T02:02:26.200Z,-6.95
2018-02-27T02:04:53.776Z,-7.05
2018-02-27T02:07:21.384Z,-6.96
2018-02-27T02:09:49.080Z,-6.90
2018-02-27T02:12:16.660Z,-6.96
2018-02-27T02:14:44.237Z,-6.92
2018-02-27T02:17:11.856Z,-6.88
2018-02-27T02:19:39.430Z,-6.84
2018-02-27T02:22:07.150Z,-6.86
2018-02-27T02:24:34.751Z,-6.86
2018-02-27T02:27:02.316Z,-6.83
2018-02-27T02:29:29.889Z,-6.81
2018-02-27T02:31:57.515Z,-6.84
2018-02-27T02:34:25.266Z,-6.93
2018-02-27T02:36:52.853Z,-7.00
2018-02-27T02:39:20.443Z,-6.94
2018-02-27T02:41:59.826Z,-6.95
2018-02-27T02:44:27.436Z,-7.17
2018-02-27T02:46:55.006Z,-7.23
2018-02-27T02:49:22.593Z,-7.30
2018-02-27T02:51:50.208Z,-7.27
2018-02-27T02:54:17.789Z,-7.29
2018-02-27T02:56:45.366Z,-7.31
2018-02-27T02:59:12.971Z,-7.35
2018-02-27T03:01:40.538Z,-7.33
2018-02-27T03:04:08.121Z,-7.33
2018-02-27T03:06:35.932Z,-7.22
2018-02-27T03:09:03.607Z,-7.17
2018-02-27T03:11:31.258Z,-7.11
2018-02-27T03:13:58.881Z,-7.05
2018-02-27T03:16:26.461Z,-7.03
2018-02-27T03:18:54.242Z,-6.98
2018-02-27T03:21:21.842Z,-6.93
2018-02-27T03:23:49.426Z,-6.89
2018-02-27T03:26:16.993Z,-6.88
2018-02-27T03:28:44.604Z,-6.90
2018-02-27T03:31:12.210Z,-6.90
2018-02-27T03:33:39.783Z,-6.98
2018-02-27T03:36:07.396Z,-6.95
2018-02-27T03:38:34.964Z,-6.94
2018-02-27T03:41:02.553Z,-6.89
2018-02-27T03:43:30.163Z,-6.94
2018-02-27T03:45:57.728Z,-6.96
2018-02-27T03:48:25.327Z,-7.10
2018-02-27T03:50:53.028Z,-7.17
2018-02-27T03:53:20.600Z,-7.17
2018-02-27T03:55:48.173Z,-7.23
2018-02-27T03:58:15.792Z,-7.20
2018-02-27T04:00:43.468Z,-7.19
2018-02-27T04:03:11.037Z,-7.16
2018-02-27T04:05:38.648Z,-7.18
2018-02-27T04:08:06.236Z,-7.25
2018-02-27T04:10:33.821Z,-7.20
2018-02-27T04:13:01.428Z,-7.19
2018-02-27T04:15:29.000Z,-7.11
2018-02-27T04:17:56.582Z,-7.09
2018-02-27T04:20:24.196Z,-7.09
2018-02-27T04:22:51.774Z,-7.11
2018-02-27T04:25:19.378Z,-7.12
2018-02-27T04:27:47.146Z,-7.12
2018-02-27T04:30:14.812Z,-7.16
2018-02-27T04:32:42.384Z,-7.19
2018-02-27T04:35:10.139Z,-7.31
2018-02-27T04:37:37.733Z,-7.43
2018-02-27T04:40:05.295Z,-7.37
2018-02-27T04:42:32.911Z,-7.22
2018-02-27T04:45:00.597Z,-7.27
2018-02-27T04:47:28.179Z,-7.06
2018-02-27T04:49:55.806Z,-7.06
2018-02-27T04:52:23.394Z,-7.01
2018-02-27T04:54:50.998Z,-7.04
2018-02-27T04:57:18.614Z,-7.06
2018-02-27T04:59:46.191Z,-7.11
2018-02-27T05:02:13.811Z,-7.09
2018-02-27T05:04:41.413Z,-7.31
2018-02-27T05:07:09.138Z,-7.31
2018-02-27T05:09:36.797Z,-7.44
2018-02-27T05:12:04.399Z,-7.47
2018-02-27T05:14:31.992Z,-7.41
2018-02-27T05:16:59.554Z,-7.39
2018-02-27T05:19:27.163Z,-7.31
2018-02-27T05:21:54.810Z,-7.25
2018-02-27T05:24:22.752Z,-7.22
2018-02-27T05:26:50.363Z,-7.18
2018-02-27T05:29:17.950Z,-7.17
2018-02-27T05:31:45.545Z,-7.12
2018-02-27T05:34:13.164Z,-7.08
2018-02-27T05:36:40.756Z,-7.07
2018-02-27T05:39:08.331Z,-7.10
2018-02-27T05:41:35.940Z,-7.09
2018-02-27T05:44:03.513Z,-6.99
2018-02-27T05:46:31.102Z,-6.90
2018-02-27T05:48:58.840Z,-6.89
2018-02-27T05:51:26.432Z,-6.82
2018-02-27T05:53:54.015Z,-6.74
2018-02-27T05:56:21.623Z,-6.69
2018-02-27T05:58:49.425Z,-6.60
2018-02-27T06:01:16.996Z,-6.56
2018-02-27T06:03:44.651Z,-6.65
2018-02-27T06:06:12.245Z,-6.63
2018-02-27T06:08:39.815Z,-6.56
2018-02-27T06:11:07.466Z,-6.51
2018-02-27T06:13:35.072Z,-6.57
2018-02-27T06:16:02.856Z,-6.73
2018-02-27T06:18:30.477Z,-6.67
2018-02-27T06:20:58.048Z,-6.64
2018-02-27T06:23:25.624Z,-6.65
2018-02-27T06:25:53.244Z,-6.54
2018-02-27T06:28:20.808Z,-6.27
2018-02-27T06:30:48.391Z,-5.56
2018-02-27T06:33:16.007Z,-5.55
2018-02-27T06:35:43.579Z,-5.78
2018-02-27T06:38:11.161Z,-5.35
2018-02-27T06:40:39.061Z,-5.53
2018-02-27T06:43:06.740Z,-5.37
2018-02-27T06:45:34.325Z,-5.44
2018-02-27T06:48:02.047Z,-5.58
2018-02-27T06:50:29.732Z,-5.58
2018-02-27T06:52:57.318Z,-5.78
2018-02-27T06:55:24.955Z,-6.22
2018-02-27T06:57:52.539Z,-6.08
2018-02-27T07:00:20.165Z,-5.81
2018-02-27T07:02:47.793Z,-5.78
2018-02-27T07:05:15.339Z,-5.99
2018-02-27T07:07:42.920Z,-6.08
2018-02-27T07:10:10.788Z,-6.18
2018-02-27T07:12:38.367Z,-6.39
2018-02-27T07:15:05.947Z,-6.12
2018-02-27T07:17:33.564Z,-5.85
2018-02-27T07:20:01.143Z,-5.59
2018-02-27T07:22:28.727Z,-5.49
2018-02-27T07:24:56.339Z,-5.31
2018-02-27T07:27:23.917Z,-5.02
2018-02-27T07:29:51.491Z,-4.77
2018-02-27T07:32:19.128Z,-5.06
2018-02-27T07:34:46.693Z,-4.91
2018-02-27T07:37:14.297Z,-5.00
2018-02-27T07:39:41.897Z,-4.76
2018-02-27T07:42:09.495Z,-4.68
2018-02-27T07:44:37.043Z,-4.49
2018-02-27T07:47:04.655Z,-4.65
2018-02-27T07:49:32.275Z,-4.64
2018-02-27T07:51:59.832Z,-4.75
2018-02-27T07:54:27.434Z,-4.92
2018-02-27T07:56:55.028Z,-5.00
2018-02-27T07:59:22.648Z,-5.05
2018-02-27T08:01:50.488Z,-4.60
2018-02-27T08:04:18.521Z,-4.27
2018-02-27T08:06:46.070Z,-3.78
2018-02-27T08:09:13.686Z,-3.64
2018-02-27T08:11:41.242Z,-3.55
2018-02-27T08:14:08.837Z,-3.45
2018-02-27T08:16:36.412Z,-3.86
2018-02-27T08:19:04.029Z,-4.01
2018-02-27T08:21:31.601Z,-3.72
2018-02-27T08:23:59.210Z,-3.59
2018-02-27T08:26:26.765Z,-4.13
2018-02-27T08:28:54.327Z,-4.28
2018-02-27T08:31:21.939Z,-4.07
2018-02-27T08:33:49.533Z,-3.87
2018-02-27T08:36:17.097Z,-3.79
2018-02-27T08:38:44.727Z,-3.64
2018-02-27T08:41:12.498Z,-3.72
2018-02-27T08:43:40.124Z,-3.94
2018-02-27T08:46:07.749Z,-4.05
2018-02-27T08:48:35.318Z,-3.81
2018-02-27T08:51:03.024Z,-3.87
2018-02-27T08:53:30.636Z,-3.42
2018-02-27T08:55:58.250Z,-2.82
2018-02-27T08:58:28.216Z,-2.52
2018-02-27T09:00:55.937Z,-2.04
2018-02-27T09:03:23.507Z,-1.64
2018-02-27T09:05:51.069Z,-1.47
2018-02-27T09:08:18.672Z,-1.77
2018-02-27T09:10:46.258Z,-1.78
2018-02-27T09:13:13.833Z,-1.83
2018-02-27T09:15:41.442Z,-2.24
2018-02-27T09:18:09.065Z,-2.25
2018-02-27T09:20:36.682Z,-2.04
2018-02-27T09:23:04.293Z,-2.39
2018-02-27T09:25:31.898Z,-2.59
2018-02-27T09:27:59.481Z,-3.06
2018-02-27T09:30:27.095Z,-2.73
2018-02-27T09:32:54.705Z,-2.36
2018-02-27T09:35:22.284Z,-2.06
2018-02-27T09:37:49.917Z,-1.82
2018-02-27T09:40:17.491Z,-1.59
2018-02-27T09:42:45.998Z,-1.51
2018-02-27T09:45:13.622Z,-1.84
2018-02-27T09:47:41.187Z,-1.23
2018-02-27T09:50:08.749Z,-0.87
2018-02-27T09:52:36.336Z,-0.83
2018-02-27T09:55:03.903Z,-0.58
2018-02-27T09:57:31.473Z,-0.49
2018-02-27T09:59:59.070Z,-0.37
2018-02-27T10:02:26.660Z,-0.31
2018-02-27T10:04:54.255Z,-0.31
2018-02-27T10:07:21.898Z,-0.56
2018-02-27T10:09:49.482Z,-0.85
2018-02-27T10:12:17.027Z,-0.44
2018-02-27T10:14:44.607Z,0.09
2018-02-27T10:17:12.212Z,0.23
2018-02-27T10:19:39.795Z,0.44
2018-02-27T10:22:07.449Z,-0.14
2018-02-27T10:24:35.037Z,-0.59
2018-02-27T10:27:02.604Z,-0.52
2018-02-27T10:29:30.201Z,-0.40
2018-02-27T10:31:57.809Z,-0.26
2018-02-27T10:34:25.377Z,0.09
2018-02-27T10:36:52.997Z,0.70
2018-02-27T10:39:20.592Z,0.58
2018-02-27T10:41:48.159Z,0.36
2018-02-27T10:44:15.756Z,-0.16
2018-02-27T10:46:43.328Z,-0.18
2018-02-27T10:49:10.925Z,-0.84
2018-02-27T10:51:38.524Z,-1.34
2018-02-27T10:54:06.094Z,-2.35
2018-02-27T10:56:33.676Z,-2.59
2018-02-27T10:59:01.342Z,-2.50
2018-02-27T11:01:28.952Z,-2.65
2018-02-27T11:03:56.501Z,-2.67
2018-02-27T11:06:24.120Z,-2.57
2018-02-27T11:08:51.700Z,-2.36
2018-02-27T11:11:19.329Z,-2.21
2018-02-27T11:13:46.956Z,-2.12
2018-02-27T11:16:14.540Z,-1.74
2018-02-27T11:18:42.240Z,-1.68
2018-02-27T11:21:09.909Z,-1.30
2018-02-27T11:23:37.478Z,-0.84
2018-02-27T11:26:05.052Z,-1.04
2018-02-27T11:28:32.903Z,-0.83
2018-02-27T11:31:00.564Z,-0.99
2018-02-27T11:33:28.139Z,-0.29
2018-02-27T11:35:55.768Z,-0.14
2018-02-27T11:38:23.558Z,0.02
2018-02-27T11:40:51.110Z,0.13
2018-02-27T11:43:18.738Z,0.48
2018-02-27T11:45:46.305Z,-0.13
2018-02-27T11:48:13.889Z,-0.80
2018-02-27T11:50:41.486Z,-1.01
2018-02-27T11:53:09.044Z,-0.90
2018-02-27T11:55:36.618Z,-0.41
2018-02-27T11:58:04.424Z,-0.14
2018-02-27T12:00:32.018Z,0.09
2018-02-27T12:02:59.575Z,0.37
2018-02-27T12:05:27.229Z,0.66
2018-02-27T12:07:54.800Z,0.96
2018-02-27T12:10:22.351Z,0.95
2018-02-27T12:12:50.009Z,0.79
2018-02-27T12:15:17.580Z,-0.16
2018-02-27T12:17:45.140Z,0.96
2018-02-27T12:20:12.734Z,1.46
2018-02-27T12:22:40.304Z,1.11
2018-02-27T12:25:07.876Z,1.71
2018-02-27T12:27:35.480Z,0.88
2018-02-27T12:30:03.051Z,1.81
2018-02-27T12:32:30.604Z,3.00
2018-02-27T12:34:58.180Z,2.53
2018-02-27T12:37:25.747Z,1.96
2018-02-27T12:39:53.309Z,2.48
2018-02-27T12:42:20.946Z,2.61
2018-02-27T12:44:48.514Z,2.56
2018-02-27T12:47:16.104Z,0.40
2018-02-27T12:49:43.727Z,0.31
2018-02-27T12:52:11.303Z,-0.16
2018-02-27T12:54:38.915Z,-0.01
2018-02-27T12:57:06.520Z,-0.47
2018-02-27T12:59:34.102Z,-0.89
2018-02-27T13:02:01.689Z,-0.64
2018-02-27T13:04:29.280Z,-0.50
2018-02-27T13:06:56.831Z,-0.66
2018-02-27T13:09:24.389Z,-0.96
2018-02-27T13:11:51.988Z,-0.87
2018-02-27T13:14:19.550Z,-0.75
2018-02-27T13:16:47.140Z,-0.71
2018-02-27T13:19:14.748Z,-0.67
2018-02-27T13:21:42.306Z,-0.64
2018-02-27T13:24:09.879Z,-0.59
2018-02-27T13:26:37.500Z,-0.78
2018-02-27T13:29:05.065Z,-1.02
2018-02-27T13:31:32.639Z,-1.12
2018-02-27T13:34:00.257Z,-0.79
2018-02-27T13:36:27.841Z,-1.24
2018-02-27T13:38:55.423Z,-1.21
2018-02-27T13:41:23.060Z,-1.32
2018-02-27T13:43:50.639Z,-1.95
2018-02-27T13:46:18.204Z,-2.44
2018-02-27T13:48:46.021Z,-2.32
2018-02-27T13:51:13.443Z,-2.29
2018-02-27T13:53:41.180Z,-2.61
2018-02-27T13:56:08.858Z,-2.58
2018-02-27T13:58:36.432Z,-2.39
2018-02-27T14:01:03.993Z,-2.32
2018-02-27T14:03:31.857Z,-2.35
2018-02-27T14:05:59.426Z,-2.18
2018-02-27T14:08:27.340Z,-2.39
2018-02-27T14:10:55.211Z,-2.62
2018-02-27T14:13:22.788Z,-2.85
2018-02-27T14:15:50.362Z,-2.81
2018-02-27T14:18:17.978Z,-2.48
2018-02-27T14:20:45.558Z,-2.45
2018-02-27T14:23:13.128Z,-2.30
2018-02-27T14:25:40.715Z,-2.13
2018-02-27T14:28:08.298Z,-2.15
2018-02-27T14:30:35.949Z,-1.93
2018-02-27T14:33:03.577Z,-2.10
2018-02-27T14:35:32.026Z,-2.05
2018-02-27T14:37:59.600Z,-1.87
2018-02-27T14:40:27.202Z,-1.77
2018-02-27T14:42:54.775Z,-1.76
2018-02-27T14:45:22.330Z,-2.07
2018-02-27T14:47:49.925Z,-2.23
2018-02-27T14:50:17.638Z,-2.27
2018-02-27T14:52:45.215Z,-2.35
2018-02-27T14:55:12.861Z,-2.63
2018-02-27T14:57:40.599Z,-2.54
2018-02-27T15:00:08.273Z,-2.57
2018-02-27T15:02:35.880Z,-2.95
2018-02-27T15:05:03.502Z,-2.95
2018-02-27T15:07:31.061Z,-2.95
2018-02-27T15:09:58.676Z,-2.86
2018-02-27T15:12:26.305Z,-2.90
2018-02-27T15:14:53.939Z,-3.18
2018-02-27T15:17:21.606Z,-3.29
2018-02-27T15:19:49.377Z,-3.71
2018-02-27T15:22:16.976Z,-3.77
2018-02-27T15:24:44.595Z,-3.83
2018-02-27T15:27:12.561Z,-3.86
2018-02-27T15:29:40.128Z,-4.00
2018-02-27T15:32:07.733Z,-4.22
2018-02-27T15:34:35.295Z,-4.28
2018-02-27T15:37:02.872Z,-4.41
2018-02-27T15:39:30.464Z,-4.36
2018-02-27T15:41:58.019Z,-4.42
2018-02-27T15:44:25.797Z,-4.45
2018-02-27T15:46:53.392Z,-4.43
2018-02-27T15:49:20.996Z,-4.39
2018-02-27T15:51:48.566Z,-4.54
2018-02-27T15:54:16.234Z,-4.52
2018-02-27T15:56:43.890Z,-4.52
2018-02-27T15:59:11.462Z,-4.57
2018-02-27T16:01:39.088Z,-4.56
2018-02-27T16:04:06.944Z,-4.61
2018-02-27T16:06:34.530Z,-4.62
2018-02-27T16:09:02.208Z,-4.61
2018-02-27T16:11:29.791Z,-4.62
2018-02-27T16:13:57.363Z,-4.67
2018-02-27T16:16:25.026Z,-4.78
2018-02-27T16:18:52.750Z,-4.73
2018-02-27T16:21:20.464Z,-4.83
2018-02-27T16:23:48.102Z,-4.90
2018-02-27T16:26:15.687Z,-5.11
2018-02-27T16:28:43.256Z,-5.20
2018-02-27T16:31:10.858Z,-5.27
2018-02-27T16:33:38.522Z,-5.37
2018-02-27T16:36:06.121Z,-5.55
2018-02-27T16:38:33.815Z,-5.53
2018-02-27T16:41:01.400Z,-5.60
2018-02-27T16:43:29.009Z,-5.62
2018-02-27T16:45:56.599Z,-5.66
2018-02-27T16:48:24.189Z,-5.67
2018-02-27T16:50:51.789Z,-5.66
2018-02-27T16:53:19.795Z,-5.63
2018-02-27T16:55:47.372Z,-5.53
2018-02-27T16:58:15.030Z,-5.48
2018-02-27T17:00:42.994Z,-5.45
2018-02-27T17:03:10.668Z,-5.37
2018-02-27T17:05:38.335Z,-5.37
2018-02-27T17:08:05.999Z,-5.31
2018-02-27T17:10:33.579Z,-5.27
2018-02-27T17:13:01.495Z,-5.22
2018-02-27T17:15:29.065Z,-5.27
2018-02-27T17:17:56.855Z,-5.33
2018-02-27T17:20:24.457Z,-5.32
2018-02-27T17:22:52.054Z,-5.30
2018-02-27T17:25:20.076Z,-5.19
2018-02-27T17:27:47.970Z,-5.25
2018-02-27T17:30:15.551Z,-5.24
2018-02-27T17:32:43.248Z,-5.34
2018-02-27T17:35:11.015Z,-5.37
2018-02-27T17:37:38.603Z,-5.43
2018-02-27T17:40:06.189Z,-5.47
2018-02-27T17:42:33.812Z,-5.58
2018-02-27T17:45:01.748Z,-5.59
2018-02-27T17:47:29.614Z,-5.55
2018-02-27T17:49:57.339Z,-5.49
2018-02-27T17:52:25.357Z,-5.51
2018-02-27T17:54:53.015Z,-5.55
2018-02-27T17:57:20.621Z,-5.59
2018-02-27T17:59:48.186Z,-5.60
2018-02-27T18:02:15.758Z,-5.60
2018-02-27T18:04:43.427Z,-5.64
2018-02-27T18:07:10.996Z,-5.66
2018-02-27T18:09:38.936Z,-5.69
2018-02-27T18:12:06.533Z,-5.69
2018-02-27T18:14:34.100Z,-5.64
2018-02-27T18:17:01.981Z,-5.62
2018-02-27T18:19:29.590Z,-5.61
2018-02-27T18:21:57.164Z,-5.69
2018-02-27T18:24:24.741Z,-5.64
2018-02-27T18:26:52.353Z,-5.61
2018-02-27T18:29:19.945Z,-5.60
2018-02-27T18:31:47.721Z,-5.62
2018-02-27T18:34:15.303Z,-5.59
2018-02-27T18:36:42.872Z,-5.72
2018-02-27T18:39:10.510Z,-5.85
2018-02-27T18:41:38.873Z,-5.89
2018-02-27T18:44:06.615Z,-5.90
2018-02-27T18:46:34.180Z,-5.84
2018-02-27T18:49:01.800Z,-5.71
2018-02-27T18:51:29.372Z,-5.75
2018-02-27T18:53:56.979Z,-5.84
2018-02-27T18:56:24.590Z,-5.87
2018-02-27T18:58:52.171Z,-5.85
2018-02-27T19:01:19.745Z,-5.92
2018-02-27T19:03:47.327Z,-6.04
2018-02-27T19:06:14.896Z,-6.03
2018-02-27T19:08:42.442Z,-6.03
2018-02-27T19:11:10.058Z,-6.05
2018-02-27T19:13:37.660Z,-5.98
2018-02-27T19:16:05.216Z,-5.97
2018-02-27T19:18:35.567Z,-5.92
2018-02-27T19:21:03.172Z,-5.93
2018-02-27T19:23:30.761Z,-5.95
2018-02-27T19:25:58.345Z,-5.91
2018-02-27T19:28:25.945Z,-5.95
2018-02-27T19:30:56.130Z,-5.97
2018-02-27T19:33:24.235Z,-5.85
2018-02-27T19:35:52.189Z,-5.93
2018-02-27T19:38:19.884Z,-5.93
2018-02-27T19:40:47.504Z,-5.98
2018-02-27T19:43:15.093Z,-5.89
2018-02-27T19:45:42.656Z,-5.97
2018-02-27T19:48:10.270Z,-6.00
2018-02-27T19:50:37.985Z,-5.91
2018-02-27T19:53:05.617Z,-5.79
2018-02-27T19:55:33.263Z,-5.86
2018-02-27T19:58:00.833Z,-5.77
2018-02-27T20:00:28.406Z,-5.80
2018-02-27T20:02:56.033Z,-5.93
2018-02-27T20:05:23.738Z,-5.83
2018-02-27T20:07:51.303Z,-6.01
2018-02-27T20:10:19.047Z,-5.87
2018-02-27T20:12:46.604Z,-5.86
2018-02-27T20:15:14.223Z,-5.95
2018-02-27T20:17:47.561Z,-5.94
2018-02-27T20:20:15.118Z,-6.02
2018-02-27T20:22:48.295Z,-6.07
2018-02-27T20:25:15.859Z,-6.06
2018-02-27T20:27:43.424Z,-6.17
2018-02-27T20:30:11.199Z,-6.20
2018-02-27T20:32:38.818Z,-6.21
2018-02-27T20:35:06.363Z,-6.08
2018-02-27T20:37:33.976Z,-6.14
2018-02-27T20:40:01.549Z,-6.19
2018-02-27T20:42:29.716Z,-6.12
2018-02-27T20:44:57.324Z,-6.12
2018-02-27T20:47:24.895Z,-6.00
2018-02-27T20:49:52.501Z,-6.01
2018-02-27T20:52:20.097Z,-6.08
2018-02-27T20:54:47.710Z,-6.26
2018-02-27T20:57:15.819Z,-6.23
2018-02-27T20:59:43.470Z,-6.08
2018-02-27T21:02:11.094Z,-6.17
2018-02-27T21:04:38.652Z,-6.08
2018-02-27T21:07:06.333Z,-6.01
2018-02-27T21:09:33.900Z,-5.99
2018-02-27T21:12:01.656Z,-5.92
2018-02-27T21:14:29.268Z,-5.80
2018-02-27T21:16:56.848Z,-5.82
2018-02-27T21:19:24.400Z,-5.85
2018-02-27T21:21:52.106Z,-5.90
2018-02-27T21:24:19.768Z,-5.79
2018-02-27T21:26:47.339Z,-5.79
2018-02-27T21:29:14.924Z,-5.76
2018-02-27T21:31:42.503Z,-5.78
2018-02-27T21:34:10.058Z,-5.82
2018-02-27T21:36:37.655Z,-5.85
2018-02-27T21:39:05.311Z,-5.84
2018-02-27T21:41:33.176Z,-5.82
2018-02-27T21:51:05.576Z,-5.76
2018-02-27T21:58:00.311Z,-5.79
2018-02-27T22:00:27.898Z,-5.84
2018-02-27T22:02:56.408Z,-5.84
2018-02-27T22:05:24.149Z,-5.80
2018-02-27T22:07:51.810Z,-5.71
2018-02-27T22:10:19.996Z,-5.64
2018-02-27T22:12:47.956Z,-5.62
2018-02-27T22:15:15.528Z,-5.64
2018-02-27T22:17:43.144Z,-5.58
2018-02-27T22:20:10.933Z,-5.66
2018-02-27T22:22:38.519Z,-5.66
2018-02-27T22:25:06.268Z,-5.59
2018-02-27T22:27:33.863Z,-5.54
2018-02-27T22:30:01.598Z,-5.67
2018-02-27T22:32:29.200Z,-5.97
2018-02-27T22:34:56.919Z,-5.88
2018-02-27T22:37:24.496Z,-6.00
2018-02-27T22:39:52.244Z,-6.09
2018-02-27T22:42:19.967Z,-6.05
2018-02-27T22:44:47.782Z,-6.07
2018-02-27T22:47:15.414Z,-6.00
2018-02-27T22:49:42.974Z,-5.93
2018-02-27T22:52:10.755Z,-5.90
2018-02-27T22:54:38.420Z,-5.84
2018-02-27T22:57:06.152Z,-5.76
2018-02-27T22:59:34.007Z,-5.70
2018-02-27T23:02:01.804Z,-5.67
2018-02-27T23:04:29.687Z,-5.75
2018-02-27T23:06:57.345Z,-5.72
2018-02-27T23:09:25.332Z,-5.55
2018-02-27T23:11:53.080Z,-5.39
2018-02-27T23:14:20.856Z,-5.31
2018-02-27T23:16:48.608Z,-5.26
2018-02-27T23:19:16.270Z,-5.26
2018-02-27T23:21:44.009Z,-5.40
2018-02-27T23:24:45.969Z,-5.42
2018-02-27T23:27:15.086Z,-5.40
2018-02-27T23:29:44.204Z,-5.25
2018-02-27T23:32:13.308Z,-5.28
2018-02-27T23:34:46.024Z,-5.31
2018-02-27T23:37:13.729Z,-5.25
2018-02-27T23:39:41.719Z,-5.33
2018-02-27T23:42:09.659Z,-5.42
2018-02-27T23:44:37.540Z,-5.35
2018-02-27T23:47:05.202Z,-5.51
2018-02-27T23:49:32.781Z,-5.59
2018-02-27T23:52:00.413Z,-5.50
2018-02-27T23:54:28.186Z,-5.53
2018-02-27T23:56:55.902Z,-5.50
2018-02-27T23:59:23.541Z,-5.48
